sensor_id;sensor_type;location;lat;lon;timestamp;pressure;altitude;pressure_sealevel;temperature;humidity
54994;BME280;40891;47.242;8.648;2023-01-27T00:00:20;96416.78;;;0.64;86.75
54994;BME280;40891;47.242;8.648;2023-01-27T00:02:45;96416.41;;;0.65;86.96
54994;BME280;40891;47.242;8.648;2023-01-27T00:05:13;96409.00;;;0.66;87.06
54994;BME280;40891;47.242;8.648;2023-01-27T00:07:39;96412.50;;;0.63;87.20
54994;BME280;40891;47.242;8.648;2023-01-27T00:10:13;96416.03;;;0.63;86.60
54994;BME280;40891;47.242;8.648;2023-01-27T00:12:40;96415.63;;;0.65;88.04
54994;BME280;40891;47.242;8.648;2023-01-27T00:15:24;96402.34;;;0.71;86.92
54994;BME280;40891;47.242;8.648;2023-01-27T00:17:49;96404.31;;;0.70;87.59
54994;BME280;40891;47.242;8.648;2023-01-27T00:20:14;96404.72;;;0.68;87.49
54994;BME280;40891;47.242;8.648;2023-01-27T00:23:00;96401.56;;;0.70;86.93
54994;BME280;40891;47.242;8.648;2023-01-27T00:25:44;96405.84;;;0.60;87.18
54994;BME280;40891;47.242;8.648;2023-01-27T00:28:15;96412.50;;;0.63;87.40
54994;BME280;40891;47.242;8.648;2023-01-27T00:30:50;96411.72;;;0.66;85.95
54994;BME280;40891;47.242;8.648;2023-01-27T00:33:15;96408.56;;;0.64;86.27
54994;BME280;40891;47.242;8.648;2023-01-27T00:36:11;96406.25;;;0.66;86.25
54994;BME280;40891;47.242;8.648;2023-01-27T00:38:36;96405.88;;;0.67;86.09
54994;BME280;40891;47.242;8.648;2023-01-27T00:41:05;96407.81;;;0.67;86.76
54994;BME280;40891;47.242;8.648;2023-01-27T00:43:40;96396.09;;;0.63;86.63
54994;BME280;40891;47.242;8.648;2023-01-27T00:46:06;96402.72;;;0.62;86.46
54994;BME280;40891;47.242;8.648;2023-01-27T00:48:32;96396.47;;;0.61;86.50
54994;BME280;40891;47.242;8.648;2023-01-27T00:50:57;96394.13;;;0.60;87.31
54994;BME280;40891;47.242;8.648;2023-01-27T00:53:23;96394.13;;;0.67;85.81
54994;BME280;40891;47.242;8.648;2023-01-27T00:55:48;96392.97;;;0.68;85.95
54994;BME280;40891;47.242;8.648;2023-01-27T00:58:13;96397.25;;;0.69;86.46
54994;BME280;40891;47.242;8.648;2023-01-27T01:00:39;96403.91;;;0.64;86.88
54994;BME280;40891;47.242;8.648;2023-01-27T01:03:04;96403.91;;;0.64;85.95
54994;BME280;40891;47.242;8.648;2023-01-27T01:05:30;96392.56;;;0.59;86.09
54994;BME280;40891;47.242;8.648;2023-01-27T01:07:55;96385.53;;;0.61;85.44
54994;BME280;40891;47.242;8.648;2023-01-27T01:10:20;96397.66;;;0.60;85.43
54994;BME280;40891;47.242;8.648;2023-01-27T01:12:46;96393.72;;;0.58;84.94
54994;BME280;40891;47.242;8.648;2023-01-27T01:15:11;96400.75;;;0.55;85.75
54994;BME280;40891;47.242;8.648;2023-01-27T01:17:37;96402.31;;;0.60;84.74
54994;BME280;40891;47.242;8.648;2023-01-27T01:20:02;96405.44;;;0.55;85.10
54994;BME280;40891;47.242;8.648;2023-01-27T01:22:28;96405.81;;;0.57;85.61
54994;BME280;40891;47.242;8.648;2023-01-27T01:24:53;96406.25;;;0.62;84.77
54994;BME280;40891;47.242;8.648;2023-01-27T01:27:18;96403.13;;;0.60;84.62
54994;BME280;40891;47.242;8.648;2023-01-27T01:29:44;96407.78;;;0.60;83.99
54994;BME280;40891;47.242;8.648;2023-01-27T01:32:09;96401.94;;;0.58;84.03
54994;BME280;40891;47.242;8.648;2023-01-27T01:34:36;96399.19;;;0.58;84.64
54994;BME280;40891;47.242;8.648;2023-01-27T01:37:01;96389.84;;;0.59;84.32
54994;BME280;40891;47.242;8.648;2023-01-27T01:39:27;96398.03;;;0.59;83.52
54994;BME280;40891;47.242;8.648;2023-01-27T01:41:53;96389.44;;;0.60;84.38
54994;BME280;40891;47.242;8.648;2023-01-27T01:44:23;96389.03;;;0.58;83.16
54994;BME280;40891;47.242;8.648;2023-01-27T01:46:49;96392.16;;;0.57;83.95
54994;BME280;40891;47.242;8.648;2023-01-27T01:49:16;96392.16;;;0.60;83.86
54994;BME280;40891;47.242;8.648;2023-01-27T01:51:46;96376.19;;;0.66;82.55
54994;BME280;40891;47.242;8.648;2023-01-27T01:54:17;96373.81;;;0.64;83.54
54994;BME280;40891;47.242;8.648;2023-01-27T01:59:25;96382.03;;;0.61;84.19
54994;BME280;40891;47.242;8.648;2023-01-27T02:01:54;96383.56;;;0.62;83.56
54994;BME280;40891;47.242;8.648;2023-01-27T02:04:23;96372.25;;;0.63;83.25
54994;BME280;40891;47.242;8.648;2023-01-27T02:06:55;96365.63;;;0.68;82.98
54994;BME280;40891;47.242;8.648;2023-01-27T02:09:23;96370.69;;;0.62;82.74
54994;BME280;40891;47.242;8.648;2023-01-27T02:11:49;96367.16;;;0.62;83.07
54994;BME280;40891;47.242;8.648;2023-01-27T02:14:16;96362.50;;;0.59;82.67
54994;BME280;40891;47.242;8.648;2023-01-27T02:16:42;96357.78;;;0.59;82.96
54994;BME280;40891;47.242;8.648;2023-01-27T02:19:17;96364.03;;;0.56;82.26
54994;BME280;40891;47.242;8.648;2023-01-27T02:21:47;96362.84;;;0.57;82.74
54994;BME280;40891;47.242;8.648;2023-01-27T02:24:14;96359.75;;;0.59;82.95
54994;BME280;40891;47.242;8.648;2023-01-27T02:26:43;96356.63;;;0.60;81.74
54994;BME280;40891;47.242;8.648;2023-01-27T02:29:12;96355.06;;;0.63;81.54
54994;BME280;40891;47.242;8.648;2023-01-27T02:31:38;96351.53;;;0.59;82.24
54994;BME280;40891;47.242;8.648;2023-01-27T02:34:07;96358.56;;;0.67;83.34
54994;BME280;40891;47.242;8.648;2023-01-27T02:36:38;96358.56;;;0.60;81.93
54994;BME280;40891;47.242;8.648;2023-01-27T02:39:07;96353.88;;;0.64;81.60
54994;BME280;40891;47.242;8.648;2023-01-27T02:41:40;96346.84;;;0.63;82.62
54994;BME280;40891;47.242;8.648;2023-01-27T02:44:07;96353.88;;;0.67;83.01
54994;BME280;40891;47.242;8.648;2023-01-27T02:46:33;96345.28;;;0.69;82.03
54994;BME280;40891;47.242;8.648;2023-01-27T02:48:58;96351.53;;;0.59;82.76
54994;BME280;40891;47.242;8.648;2023-01-27T02:51:24;96356.22;;;0.58;83.39
54994;BME280;40891;47.242;8.648;2023-01-27T02:53:49;96345.28;;;0.62;83.14
54994;BME280;40891;47.242;8.648;2023-01-27T02:56:15;96351.53;;;0.55;82.74
54994;BME280;40891;47.242;8.648;2023-01-27T02:58:40;96346.06;;;0.52;84.32
54994;BME280;40891;47.242;8.648;2023-01-27T03:01:06;96353.09;;;0.60;84.16
54994;BME280;40891;47.242;8.648;2023-01-27T03:03:31;96343.72;;;0.54;85.08
54994;BME280;40891;47.242;8.648;2023-01-27T03:05:57;96347.63;;;0.49;85.11
54994;BME280;40891;47.242;8.648;2023-01-27T03:08:22;96349.19;;;0.47;85.46
54994;BME280;40891;47.242;8.648;2023-01-27T03:10:52;96345.28;;;0.51;84.88
54994;BME280;40891;47.242;8.648;2023-01-27T03:13:25;96341.72;;;0.47;85.07
54994;BME280;40891;47.242;8.648;2023-01-27T03:15:52;96349.16;;;0.50;85.20
54994;BME280;40891;47.242;8.648;2023-01-27T03:18:36;96349.97;;;0.51;85.76
54994;BME280;40891;47.242;8.648;2023-01-27T03:21:04;96351.94;;;0.54;85.55
54994;BME280;40891;47.242;8.648;2023-01-27T03:23:31;96344.88;;;0.60;85.24
54994;BME280;40891;47.242;8.648;2023-01-27T03:25:59;96339.44;;;0.56;85.66
54994;BME280;40891;47.242;8.648;2023-01-27T03:28:26;96342.16;;;0.60;85.00
54994;BME280;40891;47.242;8.648;2023-01-27T03:31:07;96332.41;;;0.52;85.17
54994;BME280;40891;47.242;8.648;2023-01-27T03:33:33;96343.69;;;0.50;84.98
54994;BME280;40891;47.242;8.648;2023-01-27T03:36:03;96345.66;;;0.50;84.61
54994;BME280;40891;47.242;8.648;2023-01-27T03:38:47;96337.44;;;0.50;85.43
54994;BME280;40891;47.242;8.648;2023-01-27T03:41:32;96339.81;;;0.51;83.95
54994;BME280;40891;47.242;8.648;2023-01-27T03:44:16;96332.38;;;0.48;84.51
54994;BME280;40891;47.242;8.648;2023-01-27T03:47:00;96328.84;;;0.48;83.69
54994;BME280;40891;47.242;8.648;2023-01-27T03:49:25;96333.16;;;0.49;83.60
54994;BME280;40891;47.242;8.648;2023-01-27T03:51:51;96331.97;;;0.46;84.05
54994;BME280;40891;47.242;8.648;2023-01-27T03:54:16;96326.13;;;0.48;84.00
54994;BME280;40891;47.242;8.648;2023-01-27T03:56:42;96322.59;;;0.47;84.85
54994;BME280;40891;47.242;8.648;2023-01-27T03:59:08;96320.66;;;0.48;84.03
54994;BME280;40891;47.242;8.648;2023-01-27T04:01:33;96328.84;;;0.48;84.29
54994;BME280;40891;47.242;8.648;2023-01-27T04:03:58;96333.53;;;0.44;84.11
54994;BME280;40891;47.242;8.648;2023-01-27T04:06:42;96331.19;;;0.46;83.92
54994;BME280;40891;47.242;8.648;2023-01-27T04:09:27;96326.50;;;0.43;83.80
54994;BME280;40891;47.242;8.648;2023-01-27T04:11:53;96337.44;;;0.43;84.04
54994;BME280;40891;47.242;8.648;2023-01-27T04:14:23;96337.84;;;0.45;84.78
54994;BME280;40891;47.242;8.648;2023-01-27T04:16:51;96338.25;;;0.47;84.25
54994;BME280;40891;47.242;8.648;2023-01-27T04:19:17;96339.78;;;0.48;84.28
54994;BME280;40891;47.242;8.648;2023-01-27T04:21:42;96344.09;;;0.49;84.77
54994;BME280;40891;47.242;8.648;2023-01-27T04:24:10;96349.94;;;0.47;83.84
54994;BME280;40891;47.242;8.648;2023-01-27T04:26:45;96351.13;;;0.46;84.93
54994;BME280;40891;47.242;8.648;2023-01-27T04:29:11;96351.91;;;0.47;84.25
54994;BME280;40891;47.242;8.648;2023-01-27T04:31:37;96342.91;;;0.50;83.79
54994;BME280;40891;47.242;8.648;2023-01-27T04:34:03;96351.91;;;0.50;84.45
54994;BME280;40891;47.242;8.648;2023-01-27T04:36:28;96353.47;;;0.55;84.46
54994;BME280;40891;47.242;8.648;2023-01-27T04:38:53;96349.97;;;0.54;84.26
54994;BME280;40891;47.242;8.648;2023-01-27T04:41:19;96342.16;;;0.53;84.87
54994;BME280;40891;47.242;8.648;2023-01-27T04:43:44;96339.44;;;0.56;85.56
54994;BME280;40891;47.242;8.648;2023-01-27T04:46:09;96337.84;;;0.52;84.98
54994;BME280;40891;47.242;8.648;2023-01-27T04:48:35;96340.97;;;0.54;86.03
54994;BME280;40891;47.242;8.648;2023-01-27T04:51:00;96336.28;;;0.58;85.84
54994;BME280;40891;47.242;8.648;2023-01-27T04:53:25;96333.94;;;0.53;85.45
54994;BME280;40891;47.242;8.648;2023-01-27T04:55:51;96323.78;;;0.50;85.36
54994;BME280;40891;47.242;8.648;2023-01-27T04:58:16;96316.75;;;0.56;85.04
54994;BME280;40891;47.242;8.648;2023-01-27T05:00:43;96306.19;;;0.47;85.28
54994;BME280;40891;47.242;8.648;2023-01-27T05:03:09;96311.69;;;0.51;85.07
54994;BME280;40891;47.242;8.648;2023-01-27T05:05:36;96315.56;;;0.43;85.78
54994;BME280;40891;47.242;8.648;2023-01-27T05:08:06;96324.94;;;0.42;86.18
54994;BME280;40891;47.242;8.648;2023-01-27T05:10:32;96313.63;;;0.40;85.46
54994;BME280;40891;47.242;8.648;2023-01-27T05:12:58;96314.78;;;0.39;86.06
54994;BME280;40891;47.242;8.648;2023-01-27T05:15:24;96326.91;;;0.38;85.74
54994;BME280;40891;47.242;8.648;2023-01-27T05:17:49;96332.75;;;0.33;86.89
54994;BME280;40891;47.242;8.648;2023-01-27T05:20:15;96326.88;;;0.31;86.53
54994;BME280;40891;47.242;8.648;2023-01-27T05:22:41;96321.41;;;0.34;87.12
54994;BME280;40891;47.242;8.648;2023-01-27T05:25:07;96334.28;;;0.34;86.64
54994;BME280;40891;47.242;8.648;2023-01-27T05:27:32;96330.78;;;0.37;87.13
54994;BME280;40891;47.242;8.648;2023-01-27T05:29:58;96326.13;;;0.37;86.81
54994;BME280;40891;47.242;8.648;2023-01-27T05:32:23;96328.84;;;0.41;86.70
54994;BME280;40891;47.242;8.648;2023-01-27T05:34:48;96329.22;;;0.43;86.52
54994;BME280;40891;47.242;8.648;2023-01-27T05:37:14;96330.41;;;0.42;86.59
54994;BME280;40891;47.242;8.648;2023-01-27T05:39:39;96340.56;;;0.41;87.02
54994;BME280;40891;47.242;8.648;2023-01-27T05:42:04;96352.28;;;0.42;86.99
54994;BME280;40891;47.242;8.648;2023-01-27T05:44:30;96345.25;;;0.48;87.99
54994;BME280;40891;47.242;8.648;2023-01-27T05:46:55;96342.91;;;0.50;88.17
54994;BME280;40891;47.242;8.648;2023-01-27T05:49:20;96333.56;;;0.51;86.96
54994;BME280;40891;47.242;8.648;2023-01-27T05:51:46;96340.19;;;0.53;86.63
54994;BME280;40891;47.242;8.648;2023-01-27T05:54:11;96343.72;;;0.47;87.25
54994;BME280;40891;47.242;8.648;2023-01-27T05:56:36;96349.97;;;0.51;87.92
54994;BME280;40891;47.242;8.648;2023-01-27T05:59:02;96339.41;;;0.53;87.40
54994;BME280;40891;47.242;8.648;2023-01-27T06:01:29;96342.91;;;0.50;87.08
54994;BME280;40891;47.242;8.648;2023-01-27T06:03:55;96341.34;;;0.45;87.73
54994;BME280;40891;47.242;8.648;2023-01-27T06:06:22;96345.28;;;0.58;87.34
54994;BME280;40891;47.242;8.648;2023-01-27T06:08:48;96354.66;;;0.47;86.99
54994;BME280;40891;47.242;8.648;2023-01-27T06:11:15;96349.53;;;0.38;88.07
54994;BME280;40891;47.242;8.648;2023-01-27T06:13:40;96338.22;;;0.40;87.66
54994;BME280;40891;47.242;8.648;2023-01-27T06:16:08;96338.22;;;0.33;88.58
54994;BME280;40891;47.242;8.648;2023-01-27T06:18:34;96353.03;;;0.25;89.11
54994;BME280;40891;47.242;8.648;2023-01-27T06:21:01;96347.97;;;0.30;88.81
54994;BME280;40891;47.242;8.648;2023-01-27T06:23:27;96349.91;;;0.23;89.47
54994;BME280;40891;47.242;8.648;2023-01-27T06:25:53;96340.50;;;0.24;88.95
54994;BME280;40891;47.242;8.648;2023-01-27T06:28:19;96351.84;;;0.22;89.81
54994;BME280;40891;47.242;8.648;2023-01-27T06:30:45;96363.56;;;0.23;90.35
54994;BME280;40891;47.242;8.648;2023-01-27T06:33:11;96366.28;;;0.23;90.56
54994;BME280;40891;47.242;8.648;2023-01-27T06:35:38;96360.47;;;0.28;90.53
54994;BME280;40891;47.242;8.648;2023-01-27T06:38:05;96360.84;;;0.30;90.17
54994;BME280;40891;47.242;8.648;2023-01-27T06:40:32;96364.38;;;0.34;90.26
54994;BME280;40891;47.242;8.648;2023-01-27T06:42:58;96362.03;;;0.32;90.49
54994;BME280;40891;47.242;8.648;2023-01-27T06:45:24;96376.88;;;0.35;89.31
54994;BME280;40891;47.242;8.648;2023-01-27T06:48:00;96368.69;;;0.35;90.20
54994;BME280;40891;47.242;8.648;2023-01-27T06:50:27;96366.34;;;0.37;89.78
54994;BME280;40891;47.242;8.648;2023-01-27T06:52:59;96366.72;;;0.35;90.74
54994;BME280;40891;47.242;8.648;2023-01-27T06:55:26;96367.91;;;0.38;91.53
54994;BME280;40891;47.242;8.648;2023-01-27T06:57:51;96362.84;;;0.40;91.48
54994;BME280;40891;47.242;8.648;2023-01-27T07:00:17;96374.56;;;0.51;90.00
54994;BME280;40891;47.242;8.648;2023-01-27T07:02:43;96374.19;;;0.49;89.98
54994;BME280;40891;47.242;8.648;2023-01-27T07:05:09;96392.94;;;0.47;90.31
54994;BME280;40891;47.242;8.648;2023-01-27T07:07:35;96380.41;;;0.46;91.43
54994;BME280;40891;47.242;8.648;2023-01-27T07:10:00;96384.72;;;0.47;90.41
54994;BME280;40891;47.242;8.648;2023-01-27T07:12:26;96394.47;;;0.48;91.00
54994;BME280;40891;47.242;8.648;2023-01-27T07:14:51;96398.44;;;0.61;89.79
54994;BME280;40891;47.242;8.648;2023-01-27T07:17:16;96410.13;;;0.58;90.98
54994;BME280;40891;47.242;8.648;2023-01-27T07:19:41;96403.91;;;0.61;90.42
54994;BME280;40891;47.242;8.648;2023-01-27T07:22:07;96397.22;;;0.55;91.03
54994;BME280;40891;47.242;8.648;2023-01-27T07:24:32;96413.25;;;0.60;90.83
54994;BME280;40891;47.242;8.648;2023-01-27T07:26:57;96416.41;;;0.58;91.45
54994;BME280;40891;47.242;8.648;2023-01-27T07:29:23;96417.94;;;0.56;91.30
54994;BME280;40891;47.242;8.648;2023-01-27T07:31:48;96417.56;;;0.61;90.84
54994;BME280;40891;47.242;8.648;2023-01-27T07:34:13;96419.50;;;0.57;91.83
54994;BME280;40891;47.242;8.648;2023-01-27T07:36:39;96417.94;;;0.59;91.15
54994;BME280;40891;47.242;8.648;2023-01-27T07:39:04;96416.00;;;0.60;91.59
54994;BME280;40891;47.242;8.648;2023-01-27T07:41:29;96414.81;;;0.57;91.79
54994;BME280;40891;47.242;8.648;2023-01-27T07:43:55;96408.97;;;0.59;91.69
54994;BME280;40891;47.242;8.648;2023-01-27T07:46:21;96420.31;;;0.68;91.43
54994;BME280;40891;47.242;8.648;2023-01-27T07:48:46;96414.03;;;0.64;90.94
54994;BME280;40891;47.242;8.648;2023-01-27T07:51:12;96417.19;;;0.69;90.97
54994;BME280;40891;47.242;8.648;2023-01-27T07:53:39;96407.81;;;0.74;90.02
54994;BME280;40891;47.242;8.648;2023-01-27T07:56:05;96412.53;;;0.84;88.86
54994;BME280;40891;47.242;8.648;2023-01-27T07:58:30;96405.47;;;0.83;89.40
54994;BME280;40891;47.242;8.648;2023-01-27T08:00:55;96410.97;;;0.87;89.44
54994;BME280;40891;47.242;8.648;2023-01-27T08:03:23;96403.56;;;0.87;88.55
54994;BME280;40891;47.242;8.648;2023-01-27T08:05:48;96410.19;;;0.86;88.61
54994;BME280;40891;47.242;8.648;2023-01-27T08:08:14;96416.44;;;0.90;87.90
54994;BME280;40891;47.242;8.648;2023-01-27T08:10:39;96421.16;;;0.93;88.01
54994;BME280;40891;47.242;8.648;2023-01-27T08:13:05;96422.34;;;0.92;88.93
54994;BME280;40891;47.242;8.648;2023-01-27T08:15:30;96423.09;;;0.96;88.66
54994;BME280;40891;47.242;8.648;2023-01-27T08:17:57;96416.44;;;0.97;88.59
54994;BME280;40891;47.242;8.648;2023-01-27T08:20:24;96416.06;;;0.99;88.21
54994;BME280;40891;47.242;8.648;2023-01-27T08:22:50;96412.53;;;1.02;88.40
54994;BME280;40891;47.242;8.648;2023-01-27T08:25:15;96422.31;;;1.03;87.75
54994;BME280;40891;47.242;8.648;2023-01-27T08:27:40;96417.66;;;1.03;88.27
54994;BME280;40891;47.242;8.648;2023-01-27T08:30:06;96416.47;;;1.18;87.67
54994;BME280;40891;47.242;8.648;2023-01-27T08:32:33;96414.13;;;1.13;88.14
54994;BME280;40891;47.242;8.648;2023-01-27T08:34:58;96429.75;;;1.09;88.86
54994;BME280;40891;47.242;8.648;2023-01-27T08:37:23;96430.94;;;1.12;87.52
54994;BME280;40891;47.242;8.648;2023-01-27T08:39:48;96440.72;;;1.13;87.73
54994;BME280;40891;47.242;8.648;2023-01-27T08:42:14;96433.69;;;1.15;87.98
54994;BME280;40891;47.242;8.648;2023-01-27T08:44:39;96439.94;;;1.09;88.02
54994;BME280;40891;47.242;8.648;2023-01-27T08:47:04;96443.06;;;1.14;87.87
54994;BME280;40891;47.242;8.648;2023-01-27T08:49:30;96443.06;;;1.11;87.73
54994;BME280;40891;47.242;8.648;2023-01-27T08:51:55;96450.50;;;1.10;88.04
54994;BME280;40891;47.242;8.648;2023-01-27T08:54:20;96448.91;;;1.09;88.72
54994;BME280;40891;47.242;8.648;2023-01-27T08:56:46;96443.06;;;1.11;88.38
54994;BME280;40891;47.242;8.648;2023-01-27T08:59:11;96447.38;;;1.08;89.57
54994;BME280;40891;47.242;8.648;2023-01-27T09:01:36;96445.03;;;1.17;89.76
54994;BME280;40891;47.242;8.648;2023-01-27T09:04:02;96448.53;;;1.14;89.19
54994;BME280;40891;47.242;8.648;2023-01-27T09:06:27;96443.84;;;1.11;89.09
54994;BME280;40891;47.242;8.648;2023-01-27T09:08:52;96450.50;;;1.10;89.33
54994;BME280;40891;47.242;8.648;2023-01-27T09:11:40;96443.84;;;1.18;89.88
54994;BME280;40891;47.242;8.648;2023-01-27T09:14:06;96445.03;;;1.17;89.86
54994;BME280;40891;47.242;8.648;2023-01-27T09:16:31;96445.44;;;1.23;89.11
54994;BME280;40891;47.242;8.648;2023-01-27T09:18:56;96445.81;;;1.25;87.94
54994;BME280;40891;47.242;8.648;2023-01-27T09:21:23;96444.63;;;1.26;87.78
54994;BME280;40891;47.242;8.648;2023-01-27T09:23:48;96461.06;;;1.29;88.31
54994;BME280;40891;47.242;8.648;2023-01-27T09:26:14;96453.66;;;1.30;88.55
54994;BME280;40891;47.242;8.648;2023-01-27T09:28:39;96455.59;;;1.26;87.73
54994;BME280;40891;47.242;8.648;2023-01-27T09:31:04;96461.84;;;1.26;87.06
54994;BME280;40891;47.242;8.648;2023-01-27T09:33:30;96465.38;;;1.34;86.59
54994;BME280;40891;47.242;8.648;2023-01-27T09:36:02;96461.44;;;1.28;85.69
54994;BME280;40891;47.242;8.648;2023-01-27T09:38:33;96460.31;;;1.32;86.39
54994;BME280;40891;47.242;8.648;2023-01-27T09:49:36;96460.28;;;1.57;84.44
54994;BME280;40891;47.242;8.648;2023-01-27T09:55:09;96454.41;;;1.62;85.69
54994;BME280;40891;47.242;8.648;2023-01-27T10:08:39;96442.22;;;1.95;82.11
54994;BME280;40891;47.242;8.648;2023-01-27T10:17:14;96434.69;;;2.20;81.93
54994;BME280;40891;47.242;8.648;2023-01-27T10:22:49;96426.00;;;2.39;81.61
54994;BME280;40891;47.242;8.648;2023-01-27T10:28:15;96436.19;;;2.42;81.80
54994;BME280;40891;47.242;8.648;2023-01-27T10:30:59;96432.69;;;2.38;81.33
54994;BME280;40891;47.242;8.648;2023-01-27T10:33:50;96437.81;;;2.29;81.13
54994;BME280;40891;47.242;8.648;2023-01-27T10:36:36;96442.13;;;2.30;81.29
54994;BME280;40891;47.242;8.648;2023-01-27T10:41:46;96438.63;;;2.16;81.69
54994;BME280;40891;47.242;8.648;2023-01-27T10:47:22;96439.03;;;2.18;81.36
54994;BME280;40891;47.242;8.648;2023-01-27T10:49:55;96440.63;;;2.08;81.54
54994;BME280;40891;47.242;8.648;2023-01-27T10:52:37;96439.81;;;2.22;82.14
54994;BME280;40891;47.242;8.648;2023-01-27T10:55:18;96434.75;;;2.10;83.15
54994;BME280;40891;47.242;8.648;2023-01-27T11:00:27;96448.47;;;2.10;84.73
54994;BME280;40891;47.242;8.648;2023-01-27T11:03:18;96447.31;;;1.93;85.85
54994;BME280;40891;47.242;8.648;2023-01-27T11:05:50;96444.56;;;1.89;85.68
54994;BME280;40891;47.242;8.648;2023-01-27T11:08:22;96452.78;;;2.00;86.26
54994;BME280;40891;47.242;8.648;2023-01-27T11:10:54;96453.97;;;1.85;86.34
54994;BME280;40891;47.242;8.648;2023-01-27T11:13:39;96448.91;;;1.94;86.24
54994;BME280;40891;47.242;8.648;2023-01-27T11:16:12;96451.63;;;1.90;86.19
54994;BME280;40891;47.242;8.648;2023-01-27T11:18:40;96451.25;;;1.85;86.09
54994;BME280;40891;47.242;8.648;2023-01-27T11:21:18;96450.47;;;1.84;86.36
54994;BME280;40891;47.242;8.648;2023-01-27T11:23:50;96453.22;;;1.74;86.13
54994;BME280;40891;47.242;8.648;2023-01-27T11:26:29;96444.63;;;1.72;85.40
54994;BME280;40891;47.242;8.648;2023-01-27T11:34:58;96445.38;;;1.76;81.99
54994;BME280;40891;47.242;8.648;2023-01-27T11:37:47;96446.94;;;1.73;81.68
54994;BME280;40891;47.242;8.648;2023-01-27T11:42:41;96443.81;;;1.78;82.27
54994;BME280;40891;47.242;8.648;2023-01-27T11:45:13;96442.25;;;1.81;81.77
54994;BME280;40891;47.242;8.648;2023-01-27T11:47:40;96435.59;;;1.89;81.64
54994;BME280;40891;47.242;8.648;2023-01-27T11:50:11;96441.44;;;1.87;81.10
54994;BME280;40891;47.242;8.648;2023-01-27T11:52:37;96445.75;;;1.92;80.68
54994;BME280;40891;47.242;8.648;2023-01-27T11:55:15;96434.81;;;1.88;80.76
54994;BME280;40891;47.242;8.648;2023-01-27T11:57:44;96437.53;;;1.88;80.18
54994;BME280;40891;47.242;8.648;2023-01-27T12:00:21;96445.00;;;1.81;80.54
54994;BME280;40891;47.242;8.648;2023-01-27T12:05:38;96443.81;;;1.89;80.57
54994;BME280;40891;47.242;8.648;2023-01-27T12:08:06;96444.19;;;1.87;81.82
54994;BME280;40891;47.242;8.648;2023-01-27T12:10:36;96446.16;;;1.83;82.75
54994;BME280;40891;47.242;8.648;2023-01-27T12:13:17;96450.06;;;1.86;82.21
54994;BME280;40891;47.242;8.648;2023-01-27T12:15:49;96446.53;;;1.85;82.77
54994;BME280;40891;47.242;8.648;2023-01-27T12:18:17;96441.44;;;1.87;82.08
54994;BME280;40891;47.242;8.648;2023-01-27T12:20:48;96438.34;;;1.89;79.85
54994;BME280;40891;47.242;8.648;2023-01-27T12:23:26;96434.41;;;1.83;80.08
54994;BME280;40891;47.242;8.648;2023-01-27T12:25:57;96436.00;;;1.84;80.84
54994;BME280;40891;47.242;8.648;2023-01-27T12:28:29;96436.38;;;1.82;81.19
54994;BME280;40891;47.242;8.648;2023-01-27T12:31:21;96425.03;;;1.84;80.71
54994;BME280;40891;47.242;8.648;2023-01-27T12:33:58;96424.59;;;1.96;80.04
54994;BME280;40891;47.242;8.648;2023-01-27T12:36:24;96414.81;;;1.88;79.93
54994;BME280;40891;47.242;8.648;2023-01-27T12:38:52;96409.75;;;1.83;79.53
54994;BME280;40891;47.242;8.648;2023-01-27T12:41:24;96418.34;;;1.88;79.69
54994;BME280;40891;47.242;8.648;2023-01-27T12:44:16;96417.16;;;1.93;79.40
54994;BME280;40891;47.242;8.648;2023-01-27T12:47:12;96408.84;;;2.21;78.27
54994;BME280;40891;47.242;8.648;2023-01-27T12:49:39;96415.53;;;2.13;79.81
54994;BME280;40891;47.242;8.648;2023-01-27T12:52:17;96407.34;;;2.10;79.41
54994;BME280;40891;47.242;8.648;2023-01-27T12:54:42;96412.44;;;2.04;78.78
54994;BME280;40891;47.242;8.648;2023-01-27T12:57:15;96406.97;;;1.97;78.38
54994;BME280;40891;47.242;8.648;2023-01-27T12:59:57;96412.84;;;1.99;78.82
54994;BME280;40891;47.242;8.648;2023-01-27T13:02:25;96424.19;;;2.04;78.20
54994;BME280;40891;47.242;8.648;2023-01-27T13:04:55;96414.00;;;2.01;79.48
54994;BME280;40891;47.242;8.648;2023-01-27T13:07:38;96417.16;;;2.00;80.02
54994;BME280;40891;47.242;8.648;2023-01-27T13:10:25;96420.31;;;1.91;79.75
54994;BME280;40891;47.242;8.648;2023-01-27T13:12:58;96421.88;;;1.96;79.73
54994;BME280;40891;47.242;8.648;2023-01-27T13:15:30;96422.25;;;1.94;78.93
54994;BME280;40891;47.242;8.648;2023-01-27T13:18:11;96420.28;;;1.95;79.47
54994;BME280;40891;47.242;8.648;2023-01-27T13:20:42;96421.47;;;1.90;80.10
54994;BME280;40891;47.242;8.648;2023-01-27T13:25:43;96420.66;;;2.04;80.06
54994;BME280;40891;47.242;8.648;2023-01-27T13:28:16;96417.16;;;1.93;80.36
54994;BME280;40891;47.242;8.648;2023-01-27T13:30:46;96421.88;;;1.89;79.89
54994;BME280;40891;47.242;8.648;2023-01-27T13:36:03;96418.34;;;1.95;79.89
54994;BME280;40891;47.242;8.648;2023-01-27T13:42:09;96428.53;;;1.91;78.59
54994;BME280;40891;47.242;8.648;2023-01-27T13:44:47;96434.00;;;1.88;78.89
54994;BME280;40891;47.242;8.648;2023-01-27T13:47:18;96439.09;;;1.89;78.54
54994;BME280;40891;47.242;8.648;2023-01-27T13:49:48;96439.91;;;1.83;79.43
54994;BME280;40891;47.242;8.648;2023-01-27T13:52:14;96431.28;;;1.88;79.30
54994;BME280;40891;47.242;8.648;2023-01-27T13:54:40;96431.31;;;1.74;80.34
54994;BME280;40891;47.242;8.648;2023-01-27T13:57:21;96437.56;;;1.74;80.22
54994;BME280;40891;47.242;8.648;2023-01-27T14:00:12;96438.34;;;1.71;80.76
54994;BME280;40891;47.242;8.648;2023-01-27T14:03:13;96439.13;;;1.72;79.77
54994;BME280;40891;47.242;8.648;2023-01-27T14:06:02;96430.91;;;1.72;79.62
54994;BME280;40891;47.242;8.648;2023-01-27T14:11:24;96446.97;;;1.59;79.68
54994;BME280;40891;47.242;8.648;2023-01-27T14:22:18;96446.59;;;1.50;80.99
54994;BME280;40891;47.242;8.648;2023-01-27T14:24:54;96442.28;;;1.53;80.24
54994;BME280;40891;47.242;8.648;2023-01-27T14:27:31;96448.53;;;1.57;80.86
54994;BME280;40891;47.242;8.648;2023-01-27T14:30:08;96442.66;;;1.55;80.94
54994;BME280;40891;47.242;8.648;2023-01-27T14:32:46;96446.97;;;1.59;80.85
54994;BME280;40891;47.242;8.648;2023-01-27T14:35:21;96452.06;;;1.57;81.78
54994;BME280;40891;47.242;8.648;2023-01-27T14:41:16;96457.94;;;1.52;82.51